sensor_id;sensor_type;location;lat;lon;timestamp;P1;durP1;ratioP1;P2;durP2;ratioP2
22040;SDS011;11184;52.444;13.578;2024-01-30T00:00:51;13.95;;;8.88;;
22040;SDS011;11184;52.444;13.578;2024-01-30T00:03:35;13.13;;;8.75;;
22040;SDS011;11184;52.444;13.578;2024-01-30T00:06:20;13.85;;;9.20;;
22040;SDS011;11184;52.444;13.578;2024-01-30T00:09:04;15.73;;;9.55;;
22040;SDS011;11184;52.444;13.578;2024-01-30T00:11:49;14.02;;;10.57;;
22040;SDS011;11184;52.444;13.578;2024-01-30T00:14:34;10.88;;;8.68;;
22040;SDS011;11184;52.444;13.578;2024-01-30T00:17:19;10.20;;;9.00;;
22040;SDS011;11184;52.444;13.578;2024-01-30T00:20:04;10.70;;;9.07;;
22040;SDS011;11184;52.444;13.578;2024-01-30T00:22:49;12.55;;;8.27;;
22040;SDS011;11184;52.444;13.578;2024-01-30T00:25:34;15.63;;;9.77;;
22040;SDS011;11184;52.444;13.578;2024-01-30T00:28:19;15.95;;;11.35;;
22040;SDS011;11184;52.444;13.578;2024-01-30T00:31:03;14.05;;;8.77;;
22040;SDS011;11184;52.444;13.578;2024-01-30T00:33:48;15.88;;;10.43;;
22040;SDS011;11184;52.444;13.578;2024-01-30T00:36:33;10.73;;;8.90;;
22040;SDS011;11184;52.444;13.578;2024-01-30T00:39:17;15.32;;;10.10;;
22040;SDS011;11184;52.444;13.578;2024-01-30T00:42:03;13.82;;;9.73;;
22040;SDS011;11184;52.444;13.578;2024-01-30T00:44:48;11.85;;;8.32;;
22040;SDS011;11184;52.444;13.578;2024-01-30T00:47:32;11.93;;;9.43;;
22040;SDS011;11184;52.444;13.578;2024-01-30T00:50:17;10.57;;;8.65;;
22040;SDS011;11184;52.444;13.578;2024-01-30T00:53:02;11.27;;;9.93;;
22040;SDS011;11184;52.444;13.578;2024-01-30T00:55:47;12.50;;;10.30;;
22040;SDS011;11184;52.444;13.578;2024-01-30T00:58:31;12.00;;;10.15;;
22040;SDS011;11184;52.444;13.578;2024-01-30T01:01:16;13.35;;;9.52;;
22040;SDS011;11184;52.444;13.578;2024-01-30T01:04:01;11.48;;;9.63;;
22040;SDS011;11184;52.444;13.578;2024-01-30T01:06:46;11.38;;;9.25;;
22040;SDS011;11184;52.444;13.578;2024-01-30T01:09:30;11.35;;;8.90;;
22040;SDS011;11184;52.444;13.578;2024-01-30T01:12:15;17.10;;;10.73;;
22040;SDS011;11184;52.444;13.578;2024-01-30T01:15:00;11.45;;;8.57;;
22040;SDS011;11184;52.444;13.578;2024-01-30T01:17:46;16.70;;;9.32;;
22040;SDS011;11184;52.444;13.578;2024-01-30T01:20:30;10.93;;;8.93;;
22040;SDS011;11184;52.444;13.578;2024-01-30T01:23:15;12.02;;;9.48;;
22040;SDS011;11184;52.444;13.578;2024-01-30T01:26:00;12.70;;;9.05;;
22040;SDS011;11184;52.444;13.578;2024-01-30T01:28:44;10.07;;;9.10;;
22040;SDS011;11184;52.444;13.578;2024-01-30T01:31:29;12.43;;;10.07;;
22040;SDS011;11184;52.444;13.578;2024-01-30T01:34:14;11.48;;;9.55;;
22040;SDS011;11184;52.444;13.578;2024-01-30T01:36:59;16.10;;;10.75;;
22040;SDS011;11184;52.444;13.578;2024-01-30T01:39:43;11.57;;;7.95;;
22040;SDS011;11184;52.444;13.578;2024-01-30T01:42:28;15.95;;;11.23;;
22040;SDS011;11184;52.444;13.578;2024-01-30T01:45:12;11.90;;;9.52;;
22040;SDS011;11184;52.444;13.578;2024-01-30T01:47:57;11.65;;;9.02;;
22040;SDS011;11184;52.444;13.578;2024-01-30T01:50:42;10.98;;;8.93;;
22040;SDS011;11184;52.444;13.578;2024-01-30T01:53:27;11.23;;;8.95;;
22040;SDS011;11184;52.444;13.578;2024-01-30T01:56:11;10.43;;;8.68;;
22040;SDS011;11184;52.444;13.578;2024-01-30T01:58:56;11.60;;;8.60;;
22040;SDS011;11184;52.444;13.578;2024-01-30T02:01:44;12.50;;;8.85;;
22040;SDS011;11184;52.444;13.578;2024-01-30T02:04:32;10.43;;;8.70;;
22040;SDS011;11184;52.444;13.578;2024-01-30T02:07:17;17.13;;;11.32;;
22040;SDS011;11184;52.444;13.578;2024-01-30T02:10:05;11.60;;;10.43;;
22040;SDS011;11184;52.444;13.578;2024-01-30T02:12:49;12.93;;;9.27;;
22040;SDS011;11184;52.444;13.578;2024-01-30T02:15:36;13.93;;;10.13;;
22040;SDS011;11184;52.444;13.578;2024-01-30T02:18:22;13.98;;;10.05;;
22040;SDS011;11184;52.444;13.578;2024-01-30T02:21:06;13.02;;;8.93;;
22040;SDS011;11184;52.444;13.578;2024-01-30T02:23:51;17.35;;;10.73;;
22040;SDS011;11184;52.444;13.578;2024-01-30T02:26:37;10.32;;;9.32;;
22040;SDS011;11184;52.444;13.578;2024-01-30T02:29:21;16.52;;;10.90;;
22040;SDS011;11184;52.444;13.578;2024-01-30T02:32:06;12.50;;;9.25;;
22040;SDS011;11184;52.444;13.578;2024-01-30T02:34:51;18.83;;;9.30;;
22040;SDS011;11184;52.444;13.578;2024-01-30T02:37:36;17.30;;;10.48;;
22040;SDS011;11184;52.444;13.578;2024-01-30T02:40:20;15.45;;;11.63;;
22040;SDS011;11184;52.444;13.578;2024-01-30T02:43:05;17.00;;;10.50;;
22040;SDS011;11184;52.444;13.578;2024-01-30T02:45:50;12.77;;;8.88;;
22040;SDS011;11184;52.444;13.578;2024-01-30T02:48:34;13.57;;;9.65;;
22040;SDS011;11184;52.444;13.578;2024-01-30T02:51:19;13.15;;;10.63;;
22040;SDS011;11184;52.444;13.578;2024-01-30T02:54:03;11.85;;;10.50;;
22040;SDS011;11184;52.444;13.578;2024-01-30T02:56:48;11.65;;;10.00;;
22040;SDS011;11184;52.444;13.578;2024-01-30T02:59:32;14.82;;;9.43;;
22040;SDS011;11184;52.444;13.578;2024-01-30T03:02:21;13.60;;;10.88;;
22040;SDS011;11184;52.444;13.578;2024-01-30T03:05:08;17.25;;;10.20;;
22040;SDS011;11184;52.444;13.578;2024-01-30T03:07:53;13.45;;;10.13;;
22040;SDS011;11184;52.444;13.578;2024-01-30T03:10:37;13.00;;;11.30;;
22040;SDS011;11184;52.444;13.578;2024-01-30T03:13:22;16.42;;;10.90;;
22040;SDS011;11184;52.444;13.578;2024-01-30T03:16:08;18.75;;;11.43;;
22040;SDS011;11184;52.444;13.578;2024-01-30T03:18:53;14.95;;;11.85;;
22040;SDS011;11184;52.444;13.578;2024-01-30T03:21:38;16.98;;;11.73;;
22040;SDS011;11184;52.444;13.578;2024-01-30T03:24:22;19.73;;;10.95;;
22040;SDS011;11184;52.444;13.578;2024-01-30T03:27:07;15.10;;;10.57;;
22040;SDS011;11184;52.444;13.578;2024-01-30T03:29:52;18.67;;;10.50;;
22040;SDS011;11184;52.444;13.578;2024-01-30T03:32:36;16.48;;;11.02;;
22040;SDS011;11184;52.444;13.578;2024-01-30T03:35:21;17.27;;;9.38;;
22040;SDS011;11184;52.444;13.578;2024-01-30T03:38:06;17.15;;;11.10;;
22040;SDS011;11184;52.444;13.578;2024-01-30T03:40:50;12.65;;;10.00;;
22040;SDS011;11184;52.444;13.578;2024-01-30T03:43:35;17.13;;;11.70;;
22040;SDS011;11184;52.444;13.578;2024-01-30T03:46:19;15.63;;;10.98;;
22040;SDS011;11184;52.444;13.578;2024-01-30T03:49:04;14.93;;;10.35;;
22040;SDS011;11184;52.444;13.578;2024-01-30T03:51:49;15.18;;;9.98;;
22040;SDS011;11184;52.444;13.578;2024-01-30T03:54:33;14.02;;;10.85;;
22040;SDS011;11184;52.444;13.578;2024-01-30T03:57:18;17.02;;;11.05;;
22040;SDS011;11184;52.444;13.578;2024-01-30T04:00:03;18.50;;;12.07;;
22040;SDS011;11184;52.444;13.578;2024-01-30T04:02:48;12.63;;;11.18;;
22040;SDS011;11184;52.444;13.578;2024-01-30T04:05:34;15.45;;;11.57;;
22040;SDS011;11184;52.444;13.578;2024-01-30T04:08:19;16.08;;;10.60;;
22040;SDS011;11184;52.444;13.578;2024-01-30T04:11:05;17.67;;;11.02;;
22040;SDS011;11184;52.444;13.578;2024-01-30T04:13:49;16.95;;;10.93;;
22040;SDS011;11184;52.444;13.578;2024-01-30T04:16:34;17.42;;;11.90;;
22040;SDS011;11184;52.444;13.578;2024-01-30T04:19:20;15.63;;;11.30;;
22040;SDS011;11184;52.444;13.578;2024-01-30T04:22:04;14.32;;;12.02;;
22040;SDS011;11184;52.444;13.578;2024-01-30T04:24:49;18.90;;;12.15;;
22040;SDS011;11184;52.444;13.578;2024-01-30T04:27:34;16.17;;;11.18;;
22040;SDS011;11184;52.444;13.578;2024-01-30T04:30:18;16.63;;;12.10;;
22040;SDS011;11184;52.444;13.578;2024-01-30T04:33:03;15.80;;;12.48;;
22040;SDS011;11184;52.444;13.578;2024-01-30T04:35:48;17.25;;;13.35;;
22040;SDS011;11184;52.444;13.578;2024-01-30T04:38:33;21.58;;;13.05;;
22040;SDS011;11184;52.444;13.578;2024-01-30T04:41:17;23.90;;;14.25;;
22040;SDS011;11184;52.444;13.578;2024-01-30T04:44:02;20.08;;;14.38;;
22040;SDS011;11184;52.444;13.578;2024-01-30T04:46:47;25.42;;;16.23;;
22040;SDS011;11184;52.444;13.578;2024-01-30T04:49:32;17.15;;;13.65;;
22040;SDS011;11184;52.444;13.578;2024-01-30T04:52:16;22.33;;;14.10;;
22040;SDS011;11184;52.444;13.578;2024-01-30T04:55:01;20.27;;;13.13;;
22040;SDS011;11184;52.444;13.578;2024-01-30T04:57:46;20.65;;;12.82;;
22040;SDS011;11184;52.444;13.578;2024-01-30T05:00:30;22.65;;;14.25;;
22040;SDS011;11184;52.444;13.578;2024-01-30T05:03:15;18.77;;;13.18;;
22040;SDS011;11184;52.444;13.578;2024-01-30T05:05:59;15.55;;;11.82;;
22040;SDS011;11184;52.444;13.578;2024-01-30T05:08:44;21.15;;;12.20;;
22040;SDS011;11184;52.444;13.578;2024-01-30T05:11:29;20.35;;;12.93;;
22040;SDS011;11184;52.444;13.578;2024-01-30T05:14:13;15.30;;;11.55;;
22040;SDS011;11184;52.444;13.578;2024-01-30T05:17:01;15.93;;;13.07;;
22040;SDS011;11184;52.444;13.578;2024-01-30T05:19:46;15.50;;;11.55;;
22040;SDS011;11184;52.444;13.578;2024-01-30T05:22:31;11.88;;;10.65;;
22040;SDS011;11184;52.444;13.578;2024-01-30T05:25:15;18.75;;;12.68;;
22040;SDS011;11184;52.444;13.578;2024-01-30T05:28:00;13.57;;;11.57;;
22040;SDS011;11184;52.444;13.578;2024-01-30T05:30:44;16.10;;;11.85;;
22040;SDS011;11184;52.444;13.578;2024-01-30T05:33:29;18.10;;;11.57;;
22040;SDS011;11184;52.444;13.578;2024-01-30T05:36:13;14.60;;;11.13;;
22040;SDS011;11184;52.444;13.578;2024-01-30T05:38:58;17.65;;;11.38;;
22040;SDS011;11184;52.444;13.578;2024-01-30T05:41:43;20.75;;;12.57;;
22040;SDS011;11184;52.444;13.578;2024-01-30T05:44:27;19.80;;;13.30;;
22040;SDS011;11184;52.444;13.578;2024-01-30T05:47:12;15.75;;;13.05;;
22040;SDS011;11184;52.444;13.578;2024-01-30T05:49:56;13.23;;;11.38;;
22040;SDS011;11184;52.444;13.578;2024-01-30T05:52:41;14.73;;;12.02;;
22040;SDS011;11184;52.444;13.578;2024-01-30T05:55:26;15.30;;;12.13;;
22040;SDS011;11184;52.444;13.578;2024-01-30T05:58:10;15.90;;;11.85;;
22040;SDS011;11184;52.444;13.578;2024-01-30T06:00:55;22.92;;;12.65;;
22040;SDS011;11184;52.444;13.578;2024-01-30T06:03:40;20.02;;;13.65;;
22040;SDS011;11184;52.444;13.578;2024-01-30T06:06:26;17.90;;;11.98;;
22040;SDS011;11184;52.444;13.578;2024-01-30T06:09:12;13.50;;;11.43;;
22040;SDS011;11184;52.444;13.578;2024-01-30T06:11:56;16.08;;;12.35;;
22040;SDS011;11184;52.444;13.578;2024-01-30T06:14:41;16.52;;;11.80;;
22040;SDS011;11184;52.444;13.578;2024-01-30T06:17:26;17.55;;;13.02;;
22040;SDS011;11184;52.444;13.578;2024-01-30T06:20:10;25.92;;;14.70;;
22040;SDS011;11184;52.444;13.578;2024-01-30T06:22:55;22.45;;;13.15;;
22040;SDS011;11184;52.444;13.578;2024-01-30T06:25:40;17.15;;;13.02;;
22040;SDS011;11184;52.444;13.578;2024-01-30T06:28:25;16.17;;;12.93;;
22040;SDS011;11184;52.444;13.578;2024-01-30T06:31:09;23.85;;;13.73;;
22040;SDS011;11184;52.444;13.578;2024-01-30T06:33:54;17.50;;;12.35;;
22040;SDS011;11184;52.444;13.578;2024-01-30T06:36:39;19.33;;;13.15;;
22040;SDS011;11184;52.444;13.578;2024-01-30T06:39:23;20.63;;;14.45;;
22040;SDS011;11184;52.444;13.578;2024-01-30T06:42:09;27.70;;;14.50;;
22040;SDS011;11184;52.444;13.578;2024-01-30T06:44:54;16.92;;;12.57;;
22040;SDS011;11184;52.444;13.578;2024-01-30T06:47:39;19.83;;;11.85;;
22040;SDS011;11184;52.444;13.578;2024-01-30T06:50:23;14.15;;;12.68;;
22040;SDS011;11184;52.444;13.578;2024-01-30T06:53:08;20.20;;;12.43;;
22040;SDS011;11184;52.444;13.578;2024-01-30T06:55:53;14.35;;;12.15;;
22040;SDS011;11184;52.444;13.578;2024-01-30T06:58:37;19.05;;;14.15;;
22040;SDS011;11184;52.444;13.578;2024-01-30T07:01:27;19.52;;;12.32;;
22040;SDS011;11184;52.444;13.578;2024-01-30T07:04:12;19.58;;;13.10;;
22040;SDS011;11184;52.444;13.578;2024-01-30T07:06:57;15.65;;;12.52;;
22040;SDS011;11184;52.444;13.578;2024-01-30T07:09:41;16.08;;;12.75;;
22040;SDS011;11184;52.444;13.578;2024-01-30T07:12:26;20.95;;;13.88;;
22040;SDS011;11184;52.444;13.578;2024-01-30T07:15:11;20.52;;;12.68;;
22040;SDS011;11184;52.444;13.578;2024-01-30T07:17:57;22.35;;;16.17;;
22040;SDS011;11184;52.444;13.578;2024-01-30T07:20:42;30.67;;;16.63;;
22040;SDS011;11184;52.444;13.578;2024-01-30T07:23:30;18.48;;;15.32;;
22040;SDS011;11184;52.444;13.578;2024-01-30T07:26:14;22.40;;;16.20;;
22040;SDS011;11184;52.444;13.578;2024-01-30T07:29:02;21.65;;;14.80;;
22040;SDS011;11184;52.444;13.578;2024-01-30T07:31:46;15.80;;;14.18;;
22040;SDS011;11184;52.444;13.578;2024-01-30T07:34:31;19.98;;;13.90;;
22040;SDS011;11184;52.444;13.578;2024-01-30T07:37:15;23.73;;;15.25;;
22040;SDS011;11184;52.444;13.578;2024-01-30T07:40:00;18.13;;;14.10;;
22040;SDS011;11184;52.444;13.578;2024-01-30T07:42:45;22.75;;;16.88;;
22040;SDS011;11184;52.444;13.578;2024-01-30T07:45:30;19.75;;;14.38;;
22040;SDS011;11184;52.444;13.578;2024-01-30T07:48:18;17.17;;;12.68;;
22040;SDS011;11184;52.444;13.578;2024-01-30T07:51:02;20.45;;;14.82;;
22040;SDS011;11184;52.444;13.578;2024-01-30T07:53:47;18.55;;;14.00;;
22040;SDS011;11184;52.444;13.578;2024-01-30T07:56:32;18.85;;;14.85;;
22040;SDS011;11184;52.444;13.578;2024-01-30T07:59:17;20.73;;;14.68;;
22040;SDS011;11184;52.444;13.578;2024-01-30T08:02:03;16.52;;;13.18;;
22040;SDS011;11184;52.444;13.578;2024-01-30T08:04:48;17.00;;;13.82;;
22040;SDS011;11184;52.444;13.578;2024-01-30T08:07:33;17.60;;;12.18;;
22040;SDS011;11184;52.444;13.578;2024-01-30T08:10:18;19.17;;;13.60;;
22040;SDS011;11184;52.444;13.578;2024-01-30T08:13:02;28.13;;;14.23;;
22040;SDS011;11184;52.444;13.578;2024-01-30T08:15:47;22.48;;;15.02;;
22040;SDS011;11184;52.444;13.578;2024-01-30T08:18:32;19.38;;;13.52;;
22040;SDS011;11184;52.444;13.578;2024-01-30T08:21:16;15.68;;;13.20;;
22040;SDS011;11184;52.444;13.578;2024-01-30T08:24:01;18.33;;;12.98;;
22040;SDS011;11184;52.444;13.578;2024-01-30T08:26:45;22.20;;;12.23;;
22040;SDS011;11184;52.444;13.578;2024-01-30T08:29:30;16.25;;;12.07;;
22040;SDS011;11184;52.444;13.578;2024-01-30T08:32:15;16.98;;;14.63;;
22040;SDS011;11184;52.444;13.578;2024-01-30T08:34:59;21.20;;;13.20;;
22040;SDS011;11184;52.444;13.578;2024-01-30T08:37:47;13.93;;;11.32;;
22040;SDS011;11184;52.444;13.578;2024-01-30T08:40:31;15.77;;;11.40;;
22040;SDS011;11184;52.444;13.578;2024-01-30T08:43:16;16.17;;;12.68;;
22040;SDS011;11184;52.444;13.578;2024-01-30T08:46:01;20.55;;;13.85;;
22040;SDS011;11184;52.444;13.578;2024-01-30T08:48:46;19.50;;;14.32;;
22040;SDS011;11184;52.444;13.578;2024-01-30T08:51:31;20.30;;;14.30;;
22040;SDS011;11184;52.444;13.578;2024-01-30T08:54:16;19.30;;;13.75;;
22040;SDS011;11184;52.444;13.578;2024-01-30T08:57:01;18.52;;;12.93;;
22040;SDS011;11184;52.444;13.578;2024-01-30T08:59:46;20.40;;;15.00;;
22040;SDS011;11184;52.444;13.578;2024-01-30T09:02:31;14.40;;;11.70;;
22040;SDS011;11184;52.444;13.578;2024-01-30T09:05:16;18.65;;;12.95;;
22040;SDS011;11184;52.444;13.578;2024-01-30T09:08:00;16.88;;;12.63;;
22040;SDS011;11184;52.444;13.578;2024-01-30T09:10:45;15.65;;;12.77;;
22040;SDS011;11184;52.444;13.578;2024-01-30T09:13:29;15.43;;;12.02;;
22040;SDS011;11184;52.444;13.578;2024-01-30T09:16:14;16.95;;;13.07;;
22040;SDS011;11184;52.444;13.578;2024-01-30T09:18:59;17.90;;;13.27;;
22040;SDS011;11184;52.444;13.578;2024-01-30T09:21:44;14.93;;;13.20;;
22040;SDS011;11184;52.444;13.578;2024-01-30T09:24:28;17.33;;;11.50;;
22040;SDS011;11184;52.444;13.578;2024-01-30T09:27:13;15.80;;;13.35;;
22040;SDS011;11184;52.444;13.578;2024-01-30T09:29:58;20.42;;;13.10;;
22040;SDS011;11184;52.444;13.578;2024-01-30T09:32:42;15.60;;;11.52;;
22040;SDS011;11184;52.444;13.578;2024-01-30T09:35:27;16.58;;;12.30;;
22040;SDS011;11184;52.444;13.578;2024-01-30T09:38:12;12.85;;;11.40;;
22040;SDS011;11184;52.444;13.578;2024-01-30T09:40:57;16.55;;;10.77;;
22040;SDS011;11184;52.444;13.578;2024-01-30T09:43:44;12.48;;;10.45;;
22040;SDS011;11184;52.444;13.578;2024-01-30T09:46:34;14.23;;;10.23;;
22040;SDS011;11184;52.444;13.578;2024-01-30T09:49:19;14.98;;;11.27;;
22040;SDS011;11184;52.444;13.578;2024-01-30T09:52:05;14.40;;;8.75;;
22040;SDS011;11184;52.444;13.578;2024-01-30T09:54:50;11.30;;;8.40;;
22040;SDS011;11184;52.444;13.578;2024-01-30T09:57:36;10.63;;;8.95;;
22040;SDS011;11184;52.444;13.578;2024-01-30T10:00:21;13.10;;;9.25;;
22040;SDS011;11184;52.444;13.578;2024-01-30T10:03:09;15.77;;;9.70;;
22040;SDS011;11184;52.444;13.578;2024-01-30T10:05:54;10.15;;;8.90;;
22040;SDS011;11184;52.444;13.578;2024-01-30T10:08:39;13.73;;;8.02;;
22040;SDS011;11184;52.444;13.578;2024-01-30T10:11:24;11.38;;;9.18;;
22040;SDS011;11184;52.444;13.578;2024-01-30T10:14:09;11.52;;;8.70;;
22040;SDS011;11184;52.444;13.578;2024-01-30T10:16:54;20.65;;;11.68;;
22040;SDS011;11184;52.444;13.578;2024-01-30T10:19:40;16.77;;;9.75;;
22040;SDS011;11184;52.444;13.578;2024-01-30T10:22:25;11.60;;;7.90;;
22040;SDS011;11184;52.444;13.578;2024-01-30T10:25:09;13.75;;;8.48;;
22040;SDS011;11184;52.444;13.578;2024-01-30T10:27:54;11.90;;;8.32;;
22040;SDS011;11184;52.444;13.578;2024-01-30T10:30:39;20.65;;;8.23;;
22040;SDS011;11184;52.444;13.578;2024-01-30T10:33:24;18.15;;;9.60;;
22040;SDS011;11184;52.444;13.578;2024-01-30T10:36:09;13.10;;;7.53;;
22040;SDS011;11184;52.444;13.578;2024-01-30T10:38:59;11.02;;;6.75;;
22040;SDS011;11184;52.444;13.578;2024-01-30T10:41:44;13.10;;;7.55;;
22040;SDS011;11184;52.444;13.578;2024-01-30T10:44:29;12.38;;;6.80;;
22040;SDS011;11184;52.444;13.578;2024-01-30T10:47:14;10.75;;;5.35;;
22040;SDS011;11184;52.444;13.578;2024-01-30T10:50:03;13.48;;;6.88;;
22040;SDS011;11184;52.444;13.578;2024-01-30T10:52:47;10.27;;;6.60;;
22040;SDS011;11184;52.444;13.578;2024-01-30T10:55:33;10.15;;;6.10;;
22040;SDS011;11184;52.444;13.578;2024-01-30T10:58:19;8.02;;;5.88;;
22040;SDS011;11184;52.444;13.578;2024-01-30T11:01:05;10.32;;;6.40;;
22040;SDS011;11184;52.444;13.578;2024-01-30T11:03:53;13.02;;;8.85;;
22040;SDS011;11184;52.444;13.578;2024-01-30T11:06:41;9.80;;;7.05;;
22040;SDS011;11184;52.444;13.578;2024-01-30T11:09:28;8.27;;;6.45;;
22040;SDS011;11184;52.444;13.578;2024-01-30T11:12:13;9.00;;;6.90;;
22040;SDS011;11184;52.444;13.578;2024-01-30T11:15:08;8.07;;;6.63;;
22040;SDS011;11184;52.444;13.578;2024-01-30T11:17:53;9.70;;;6.70;;
22040;SDS011;11184;52.444;13.578;2024-01-30T11:20:37;10.07;;;6.18;;
22040;SDS011;11184;52.444;13.578;2024-01-30T11:23:29;9.93;;;6.28;;
22040;SDS011;11184;52.444;13.578;2024-01-30T11:26:13;11.38;;;6.57;;
22040;SDS011;11184;52.444;13.578;2024-01-30T11:28:58;9.25;;;5.95;;
22040;SDS011;11184;52.444;13.578;2024-01-30T11:31:55;13.13;;;7.05;;
22040;SDS011;11184;52.444;13.578;2024-01-30T11:34:41;14.75;;;11.63;;
22040;SDS011;11184;52.444;13.578;2024-01-30T11:37:25;9.70;;;6.50;;
22040;SDS011;11184;52.444;13.578;2024-01-30T11:40:11;10.18;;;7.18;;
22040;SDS011;11184;52.444;13.578;2024-01-30T11:42:56;13.05;;;7.18;;
22040;SDS011;11184;52.444;13.578;2024-01-30T11:45:41;14.00;;;7.30;;
22040;SDS011;11184;52.444;13.578;2024-01-30T11:48:27;15.52;;;7.55;;
22040;SDS011;11184;52.444;13.578;2024-01-30T11:51:12;10.30;;;7.30;;
22040;SDS011;11184;52.444;13.578;2024-01-30T11:53:58;16.92;;;7.20;;
22040;SDS011;11184;52.444;13.578;2024-01-30T11:56:42;10.85;;;7.72;;
22040;SDS011;11184;52.444;13.578;2024-01-30T11:59:27;9.93;;;7.28;;
22040;SDS011;11184;52.444;13.578;2024-01-30T12:02:15;13.00;;;8.55;;
22040;SDS011;11184;52.444;13.578;2024-01-30T12:05:03;13.35;;;6.80;;
22040;SDS011;11184;52.444;13.578;2024-01-30T12:07:49;10.63;;;7.43;;
22040;SDS011;11184;52.444;13.578;2024-01-30T12:10:33;10.73;;;6.88;;
22040;SDS011;11184;52.444;13.578;2024-01-30T12:13:18;12.65;;;7.47;;
22040;SDS011;11184;52.444;13.578;2024-01-30T12:16:02;8.95;;;8.07;;
22040;SDS011;11184;52.444;13.578;2024-01-30T12:18:47;11.90;;;8.18;;
22040;SDS011;11184;52.444;13.578;2024-01-30T12:21:33;10.95;;;8.20;;
22040;SDS011;11184;52.444;13.578;2024-01-30T12:24:18;8.20;;;6.85;;
22040;SDS011;11184;52.444;13.578;2024-01-30T12:27:02;10.82;;;8.32;;
22040;SDS011;11184;52.444;13.578;2024-01-30T12:29:47;9.35;;;7.40;;
22040;SDS011;11184;52.444;13.578;2024-01-30T12:32:33;9.73;;;6.70;;
22040;SDS011;11184;52.444;13.578;2024-01-30T12:35:19;8.32;;;7.22;;
22040;SDS011;11184;52.444;13.578;2024-01-30T12:38:04;9.77;;;7.35;;
22040;SDS011;11184;52.444;13.578;2024-01-30T12:40:49;8.63;;;7.00;;
22040;SDS011;11184;52.444;13.578;2024-01-30T12:43:34;8.80;;;7.18;;
22040;SDS011;11184;52.444;13.578;2024-01-30T12:46:19;16.83;;;8.70;;
22040;SDS011;11184;52.444;13.578;2024-01-30T12:49:04;11.60;;;7.60;;
22040;SDS011;11184;52.444;13.578;2024-01-30T12:51:49;7.90;;;7.10;;
22040;SDS011;11184;52.444;13.578;2024-01-30T12:54:33;8.55;;;7.15;;
22040;SDS011;11184;52.444;13.578;2024-01-30T12:57:18;17.15;;;10.18;;
22040;SDS011;11184;52.444;13.578;2024-01-30T13:00:03;10.35;;;7.70;;
22040;SDS011;11184;52.444;13.578;2024-01-30T13:02:49;14.30;;;7.20;;
22040;SDS011;11184;52.444;13.578;2024-01-30T13:05:33;11.60;;;7.00;;
22040;SDS011;11184;52.444;13.578;2024-01-30T13:08:18;11.80;;;8.23;;
22040;SDS011;11184;52.444;13.578;2024-01-30T13:11:02;8.85;;;7.50;;
22040;SDS011;11184;52.444;13.578;2024-01-30T13:13:47;8.50;;;7.63;;
22040;SDS011;11184;52.444;13.578;2024-01-30T13:16:32;10.18;;;6.63;;
22040;SDS011;11184;52.444;13.578;2024-01-30T13:19:17;7.97;;;6.82;;
22040;SDS011;11184;52.444;13.578;2024-01-30T13:22:02;8.55;;;7.57;;
22040;SDS011;11184;52.444;13.578;2024-01-30T13:24:47;10.52;;;7.03;;
22040;SDS011;11184;52.444;13.578;2024-01-30T13:27:32;8.48;;;7.63;;
22040;SDS011;11184;52.444;13.578;2024-01-30T13:30:17;13.35;;;8.27;;
22040;SDS011;11184;52.444;13.578;2024-01-30T13:33:02;9.40;;;6.45;;
22040;SDS011;11184;52.444;13.578;2024-01-30T13:35:47;16.10;;;8.55;;
22040;SDS011;11184;52.444;13.578;2024-01-30T13:38:32;11.15;;;7.43;;
22040;SDS011;11184;52.444;13.578;2024-01-30T13:41:16;7.95;;;7.07;;
22040;SDS011;11184;52.444;13.578;2024-01-30T13:44:01;11.25;;;8.55;;
22040;SDS011;11184;52.444;13.578;2024-01-30T13:46:47;10.70;;;6.82;;
22040;SDS011;11184;52.444;13.578;2024-01-30T13:49:31;9.10;;;6.88;;
22040;SDS011;11184;52.444;13.578;2024-01-30T13:52:16;9.00;;;6.95;;
22040;SDS011;11184;52.444;13.578;2024-01-30T13:55:02;8.65;;;6.95;;
22040;SDS011;11184;52.444;13.578;2024-01-30T13:57:47;11.35;;;7.10;;
22040;SDS011;11184;52.444;13.578;2024-01-30T14:00:32;10.30;;;7.25;;
22040;SDS011;11184;52.444;13.578;2024-01-30T14:03:17;8.10;;;6.15;;
22040;SDS011;11184;52.444;13.578;2024-01-30T14:06:02;11.25;;;7.43;;
22040;SDS011;11184;52.444;13.578;2024-01-30T14:08:47;9.05;;;6.95;;
22040;SDS011;11184;52.444;13.578;2024-01-30T14:11:31;8.02;;;6.10;;
22040;SDS011;11184;52.444;13.578;2024-01-30T14:14:16;10.93;;;7.88;;
22040;SDS011;11184;52.444;13.578;2024-01-30T14:17:00;6.72;;;5.43;;
22040;SDS011;11184;52.444;13.578;2024-01-30T14:19:45;10.07;;;6.65;;
22040;SDS011;11184;52.444;13.578;2024-01-30T14:22:30;11.20;;;6.63;;
22040;SDS011;11184;52.444;13.578;2024-01-30T14:25:15;16.52;;;7.43;;
22040;SDS011;11184;52.444;13.578;2024-01-30T14:28:00;7.60;;;6.55;;
22040;SDS011;11184;52.444;13.578;2024-01-30T14:30:45;8.27;;;6.65;;
22040;SDS011;11184;52.444;13.578;2024-01-30T14:33:30;7.90;;;7.10;;
22040;SDS011;11184;52.444;13.578;2024-01-30T14:36:15;16.85;;;7.10;;
22040;SDS011;11184;52.444;13.578;2024-01-30T14:39:00;7.80;;;6.55;;
22040;SDS011;11184;52.444;13.578;2024-01-30T14:41:44;10.68;;;7.70;;
22040;SDS011;11184;52.444;13.578;2024-01-30T14:44:29;9.32;;;7.22;;
22040;SDS011;11184;52.444;13.578;2024-01-30T14:47:15;13.93;;;8.45;;
22040;SDS011;11184;52.444;13.578;2024-01-30T14:49:59;12.27;;;8.45;;
22040;SDS011;11184;52.444;13.578;2024-01-30T14:52:44;15.95;;;8.35;;
22040;SDS011;11184;52.444;13.578;2024-01-30T14:55:29;10.27;;;6.55;;
22040;SDS011;11184;52.444;13.578;2024-01-30T14:58:13;17.15;;;8.80;;
22040;SDS011;11184;52.444;13.578;2024-01-30T15:00:58;8.75;;;7.30;;
22040;SDS011;11184;52.444;13.578;2024-01-30T15:03:43;16.70;;;8.45;;
22040;SDS011;11184;52.444;13.578;2024-01-30T15:06:27;10.68;;;7.90;;
22040;SDS011;11184;52.444;13.578;2024-01-30T15:09:12;12.35;;;7.07;;
22040;SDS011;11184;52.444;13.578;2024-01-30T15:11:58;8.48;;;7.65;;
22040;SDS011;11184;52.444;13.578;2024-01-30T15:14:43;11.68;;;8.73;;
22040;SDS011;11184;52.444;13.578;2024-01-30T15:17:34;16.92;;;8.95;;
22040;SDS011;11184;52.444;13.578;2024-01-30T15:20:18;11.90;;;8.43;;
22040;SDS011;11184;52.444;13.578;2024-01-30T15:23:03;9.00;;;7.05;;
22040;SDS011;11184;52.444;13.578;2024-01-30T15:25:47;10.50;;;8.20;;
22040;SDS011;11184;52.444;13.578;2024-01-30T15:28:36;12.15;;;9.20;;
22040;SDS011;11184;52.444;13.578;2024-01-30T15:31:21;9.98;;;7.75;;
22040;SDS011;11184;52.444;13.578;2024-01-30T15:34:06;9.95;;;7.82;;
22040;SDS011;11184;52.444;13.578;2024-01-30T15:36:50;16.20;;;10.52;;
22040;SDS011;11184;52.444;13.578;2024-01-30T15:39:35;10.90;;;6.88;;
22040;SDS011;11184;52.444;13.578;2024-01-30T15:42:20;10.10;;;7.50;;
22040;SDS011;11184;52.444;13.578;2024-01-30T15:45:04;12.20;;;8.57;;
22040;SDS011;11184;52.444;13.578;2024-01-30T15:47:49;12.43;;;8.52;;
22040;SDS011;11184;52.444;13.578;2024-01-30T15:50:34;11.82;;;8.30;;
22040;SDS011;11184;52.444;13.578;2024-01-30T15:53:21;9.98;;;8.70;;
22040;SDS011;11184;52.444;13.578;2024-01-30T15:56:06;14.85;;;9.80;;
22040;SDS011;11184;52.444;13.578;2024-01-30T15:58:51;13.45;;;8.93;;